createdAt,value
2023-04-16T00:00:03.903Z,100.00
2023-04-16T00:05:15.360Z,100.00
2023-04-16T00:10:19.272Z,100.00
2023-04-16T00:15:24.722Z,100.00
2023-04-16T00:20:28.876Z,100.00
2023-04-16T00:25:32.707Z,100.00
2023-04-16T00:30:38.684Z,100.00
2023-04-16T00:35:42.945Z,100.00
2023-04-16T00:40:46.774Z,100.00
2023-04-16T00:45:54.048Z,100.00
2023-04-16T00:50:58.430Z,100.00
2023-04-16T00:56:03.452Z,100.00
2023-04-16T01:01:09.152Z,100.00
2023-04-16T01:06:13.173Z,100.00
2023-04-16T01:11:17.655Z,100.00
2023-04-16T01:16:23.109Z,100.00
2023-04-16T01:21:28.641Z,100.00
2023-04-16T01:26:33.104Z,100.00
2023-04-16T01:31:37.185Z,100.00
2023-04-16T01:36:57.810Z,100.00
2023-04-16T01:42:02.399Z,100.00
2023-04-16T01:47:06.673Z,100.00
2023-04-16T01:52:11.941Z,100.00
2023-04-16T01:57:15.933Z,100.00
2023-04-16T02:02:21.015Z,100.00
2023-04-16T02:07:27.427Z,100.00
2023-04-16T02:12:31.680Z,100.00
2023-04-16T02:17:36.238Z,100.00
2023-04-16T02:22:48.816Z,100.00
2023-04-16T02:27:56.116Z,100.00
2023-04-16T02:33:11.635Z,100.00
2023-04-16T02:38:19.384Z,100.00
2023-04-16T02:43:23.470Z,100.00
2023-04-16T02:48:27.786Z,100.00
2023-04-16T02:53:33.403Z,100.00
2023-04-16T02:58:37.718Z,100.00
2023-04-16T03:03:42.030Z,100.00
2023-04-16T03:08:47.462Z,100.00
2023-04-16T03:13:51.573Z,100.00
2023-04-16T03:18:55.739Z,100.00
2023-04-16T03:24:01.163Z,100.00
2023-04-16T03:29:05.040Z,100.00
2023-04-16T03:34:10.973Z,100.00
2023-04-16T03:39:18.237Z,100.00
2023-04-16T03:44:22.157Z,100.00
2023-04-16T03:49:26.289Z,100.00
2023-04-16T03:54:31.792Z,100.00
2023-04-16T03:59:47.648Z,100.00
2023-04-16T04:04:53.728Z,100.00
2023-04-16T04:09:59.074Z,100.00
2023-04-16T04:15:03.216Z,100.00
2023-04-16T04:20:08.507Z,100.00
2023-04-16T04:25:15.782Z,100.00
2023-04-16T04:30:19.909Z,100.00
2023-04-16T04:35:24.410Z,100.00
2023-04-16T04:40:30.067Z,100.00
2023-04-16T04:45:34.411Z,100.00
2023-04-16T04:50:38.524Z,100.00
2023-04-16T04:55:44.218Z,100.00
2023-04-16T05:00:48.810Z,100.00
2023-04-16T05:05:53.389Z,100.00
2023-04-16T05:10:58.776Z,100.00
2023-04-16T05:16:02.806Z,100.00
2023-04-16T05:21:07.559Z,100.00
2023-04-16T05:26:13.226Z,100.00
2023-04-16T05:31:17.332Z,100.00
2023-04-16T05:36:22.088Z,100.00
2023-04-16T05:41:27.291Z,100.00
2023-04-16T05:46:31.404Z,100.00
2023-04-16T05:51:35.650Z,100.00
2023-04-16T05:56:41.104Z,100.00
2023-04-16T06:01:44.939Z,100.00
2023-04-16T06:06:48.781Z,100.00
2023-04-16T06:11:53.997Z,100.00
2023-04-16T06:16:58.245Z,100.00
2023-04-16T06:22:02.505Z,100.00
2023-04-16T06:27:08.127Z,100.00
2023-04-16T06:32:12.485Z,100.00
2023-04-16T06:37:17.501Z,100.00
2023-04-16T06:42:23.107Z,100.00
2023-04-16T06:47:27.319Z,100.00
2023-04-16T06:52:31.278Z,100.00
2023-04-16T06:57:37.676Z,100.00
2023-04-16T07:02:42.130Z,100.00
2023-04-16T07:07:46.147Z,100.00
2023-04-16T07:12:51.631Z,100.00
2023-04-16T07:17:55.753Z,100.00
2023-04-16T07:23:00.424Z,100.00
2023-04-16T07:28:05.928Z,100.00
2023-04-16T07:33:10.500Z,100.00
2023-04-16T07:38:14.769Z,100.00
2023-04-16T07:43:20.228Z,100.00
2023-04-16T07:48:24.225Z,100.00
2023-04-16T07:53:28.522Z,100.00
2023-04-16T07:58:33.729Z,100.00
2023-04-16T08:03:37.990Z,100.00
2023-04-16T08:08:42.417Z,100.00
2023-04-16T08:13:47.784Z,100.00
2023-04-16T08:18:51.653Z,100.00
2023-04-16T08:23:56.042Z,100.00
2023-04-16T08:29:01.770Z,100.00
2023-04-16T08:34:06.344Z,100.00
2023-04-16T08:39:10.933Z,100.00
2023-04-16T08:44:21.982Z,100.00
2023-04-16T08:49:26.923Z,100.00
2023-04-16T08:54:40.153Z,100.00
2023-04-16T08:59:47.037Z,100.00
2023-04-16T09:04:51.818Z,100.00
2023-04-16T09:09:55.963Z,100.00
2023-04-16T09:15:03.110Z,100.00
2023-04-16T09:20:11.078Z,100.00
2023-04-16T09:25:16.582Z,100.00
2023-04-16T09:30:23.418Z,100.00
2023-04-16T09:35:27.809Z,100.00
2023-04-16T09:40:32.321Z,100.00
2023-04-16T09:45:51.794Z,100.00
2023-04-16T09:50:56.286Z,100.00
2023-04-16T09:56:01.553Z,100.00
2023-04-16T10:01:11.707Z,100.00
2023-04-16T10:06:18.207Z,99.75
2023-04-16T10:11:22.748Z,99.19
2023-04-16T10:16:28.089Z,96.39
2023-04-16T10:21:34.311Z,95.43
2023-04-16T10:26:38.928Z,91.34
2023-04-16T10:31:44.440Z,93.83
2023-04-16T10:36:51.206Z,93.28
2023-04-16T10:42:09.233Z,89.76
2023-04-16T10:47:15.399Z,90.03
2023-04-16T10:52:19.665Z,89.63
2023-04-16T10:57:23.611Z,85.81
2023-04-16T11:02:31.007Z,84.36
2023-04-16T11:07:36.037Z,80.04
2023-04-16T11:12:42.265Z,78.53
2023-04-16T11:17:48.889Z,78.42
2023-04-16T11:22:53.705Z,73.04
2023-04-16T11:27:59.116Z,70.19
2023-04-16T11:33:05.087Z,72.17
2023-04-16T11:38:09.229Z,68.88
2023-04-16T11:43:15.900Z,72.37
2023-04-16T11:48:22.033Z,67.06
2023-04-16T11:53:26.369Z,66.57
2023-04-16T11:58:30.238Z,67.13
2023-04-16T12:03:46.529Z,66.73
2023-04-16T12:08:50.782Z,61.58
2023-04-16T12:14:10.673Z,62.32
2023-04-16T12:19:16.098Z,58.03
2023-04-16T12:24:22.688Z,58.21
2023-04-16T12:29:28.081Z,57.72
2023-04-16T12:34:49.220Z,57.89
2023-04-16T12:39:54.419Z,59.45
2023-04-16T12:44:58.606Z,60.43
2023-04-16T12:50:04.052Z,60.38
2023-04-16T12:55:08.600Z,62.26
2023-04-16T13:00:14.890Z,66.99
2023-04-16T13:05:20.633Z,67.08
2023-04-16T13:10:24.584Z,65.88
2023-04-16T13:15:28.930Z,64.37
2023-04-16T13:20:34.616Z,62.33
2023-04-16T13:25:38.609Z,59.79
2023-04-16T13:30:42.800Z,58.94
2023-04-16T13:35:48.600Z,57.01
2023-04-16T13:40:52.674Z,56.52
2023-04-16T13:45:57.524Z,55.46
2023-04-16T13:51:03.601Z,55.90
2023-04-16T13:56:07.955Z,58.06
2023-04-16T14:01:12.345Z,57.27
2023-04-16T14:06:18.362Z,56.84
2023-04-16T14:11:22.626Z,58.79
2023-04-16T14:16:27.362Z,60.84
2023-04-16T14:21:32.914Z,59.18
2023-04-16T14:26:37.041Z,60.52
2023-04-16T14:31:40.979Z,59.16
2023-04-16T14:36:46.300Z,59.33
2023-04-16T14:41:50.784Z,56.20
2023-04-16T14:46:55.415Z,54.10
2023-04-16T14:52:02.086Z,53.22
2023-04-16T14:57:06.182Z,52.93
2023-04-16T15:02:10.464Z,52.26
2023-04-16T15:07:15.876Z,52.53
2023-04-16T15:12:19.879Z,52.74
2023-04-16T15:17:24.129Z,51.49
2023-04-16T15:22:29.352Z,51.54
2023-04-16T15:27:33.397Z,51.61
2023-04-16T15:32:37.563Z,53.50
2023-04-16T15:37:42.973Z,54.26
2023-04-16T15:42:47.430Z,54.93
2023-04-16T15:47:52.227Z,56.20
2023-04-16T15:52:57.705Z,56.37
2023-04-16T15:58:01.782Z,56.79
2023-04-16T16:03:06.368Z,57.00
2023-04-16T16:08:12.256Z,57.70
2023-04-16T16:13:18.388Z,58.93
2023-04-16T16:18:23.154Z,60.34
2023-04-16T16:23:28.613Z,59.90
2023-04-16T16:28:32.759Z,61.65
2023-04-16T16:33:37.917Z,63.08
2023-04-16T16:38:47.300Z,64.92
2023-04-16T16:43:51.413Z,68.00
2023-04-16T16:48:55.517Z,70.92
2023-04-16T16:54:01.162Z,72.62
2023-04-16T16:59:05.106Z,74.60
2023-04-16T17:04:09.309Z,76.58
2023-04-16T17:09:14.711Z,78.80
2023-04-16T17:14:19.150Z,80.76
2023-04-16T17:19:23.249Z,84.23
2023-04-16T17:24:28.685Z,87.09
2023-04-16T17:29:32.841Z,90.26
2023-04-16T17:34:36.911Z,92.98
2023-04-16T17:39:42.670Z,93.40
2023-04-16T17:44:46.666Z,96.30
2023-04-16T17:49:53.839Z,98.68
2023-04-16T17:55:01.847Z,100.00
2023-04-16T18:00:11.029Z,100.00
2023-04-16T18:05:19.004Z,100.00
2023-04-16T18:10:24.719Z,100.00
2023-04-16T18:15:29.276Z,100.00
2023-04-16T18:20:33.818Z,100.00
2023-04-16T18:25:40.304Z,100.00
2023-04-16T18:30:44.649Z,100.00
2023-04-16T18:35:49.820Z,100.00
2023-04-16T18:40:55.260Z,100.00
2023-04-16T18:45:59.700Z,100.00
2023-04-16T18:51:04.457Z,100.00
2023-04-16T18:56:10.721Z,100.00
2023-04-16T19:01:14.880Z,100.00
2023-04-16T19:06:18.816Z,100.00
2023-04-16T19:11:24.201Z,100.00
2023-04-16T19:16:28.595Z,100.00
2023-04-16T19:21:32.707Z,100.00
2023-04-16T19:26:38.180Z,100.00
2023-04-16T19:31:42.514Z,100.00
2023-04-16T19:36:46.583Z,100.00
2023-04-16T19:41:52.129Z,100.00
2023-04-16T19:46:56.383Z,100.00
2023-04-16T19:52:01.536Z,100.00
2023-04-16T19:57:07.081Z,100.00
2023-04-16T20:02:11.604Z,100.00
2023-04-16T20:07:15.599Z,100.00
2023-04-16T20:12:21.079Z,100.00
2023-04-16T20:17:25.140Z,100.00
2023-04-16T20:22:28.950Z,100.00
2023-04-16T20:27:34.747Z,100.00
2023-04-16T20:32:38.579Z,100.00
2023-04-16T20:37:43.133Z,100.00
2023-04-16T20:42:50.902Z,100.00
2023-04-16T20:47:55.166Z,100.00
2023-04-16T20:52:59.395Z,100.00
2023-04-16T20:58:04.674Z,100.00
2023-04-16T21:03:08.896Z,100.00
2023-04-16T21:08:12.880Z,100.00
2023-04-16T21:13:18.673Z,100.00
2023-04-16T21:18:22.891Z,100.00
2023-04-16T21:23:26.991Z,100.00
2023-04-16T21:28:32.641Z,100.00
2023-04-16T21:33:36.720Z,100.00
2023-04-16T21:38:40.967Z,100.00
2023-04-16T21:43:46.551Z,100.00
2023-04-16T21:48:50.904Z,100.00
2023-04-16T21:53:55.773Z,100.00
2023-04-16T21:59:01.044Z,100.00
2023-04-16T22:04:05.399Z,100.00
2023-04-16T22:09:09.685Z,100.00
2023-04-16T22:14:17.673Z,100.00
2023-04-16T22:19:21.763Z,100.00
2023-04-16T22:24:25.724Z,100.00
2023-04-16T22:29:31.144Z,100.00
2023-04-16T22:34:35.360Z,100.00
2023-04-16T22:39:39.191Z,100.00
2023-04-16T22:44:44.545Z,100.00
2023-04-16T22:49:48.574Z,100.00
2023-04-16T22:54:52.975Z,100.00
2023-04-16T22:59:58.588Z,100.00
2023-04-16T23:05:02.677Z,100.00
2023-04-16T23:10:08.804Z,100.00
2023-04-16T23:15:16.407Z,100.00
2023-04-16T23:20:20.489Z,100.00
2023-04-16T23:25:25.506Z,100.00
2023-04-16T23:30:30.905Z,100.00
2023-04-16T23:35:35.020Z,100.00
2023-04-16T23:40:39.311Z,100.00
2023-04-16T23:45:45.077Z,100.00
2023-04-16T23:50:49.188Z,100.00
2023-04-16T23:55:53.500Z,100.00
